Time;durP1;ratioP1;P1;durP2;ratioP2;P2;SDS_P1;SDS_P2;PMS_P1;PMS_P2;Temp;Humidity;BMP_temperature;BMP_pressure;BME280_temperature;BME280_humidity;BME280_pressure;Samples;Min_cycle;Max_cycle;Signal;HPM_P1;HPM_P2
2022/12/06 00:00:18;;;;;;;;;;;;;;;;;;5060456;28;19935;-56
2022/12/06 00:02:44;;;;;;;;;;;;;;;;;;5062000;28;20383;-58
2022/12/06 00:05:09;;;;;;;;;;;;;;;;;;5058754;28;19942;-58
2022/12/06 00:07:34;;;;;;;;;;;;;;;;;;5055342;28;19925;-56
2022/12/06 00:10:00;;;;;;;;;;;;;;;;;;5062944;28;20016;-56
2022/12/06 00:12:25;;;;;;;;;;;;;;;;;;5064155;28;19924;-59
2022/12/06 00:14:51;;;;;;;;;;;;;;;;;;5061813;28;19970;-53
2022/12/06 00:17:16;;;;;;;;;;;;;;;;;;5062624;28;19936;-54
2022/12/06 00:19:41;;;;;;;;;;;;;;;;;;5062494;28;19928;-57
2022/12/06 00:22:07;;;;;;;;;;;;;;;;;;5060119;28;21011;-56
2022/12/06 00:24:33;;;;;;;;;;;;;;;;;;5064602;28;19924;-57
2022/12/06 00:26:58;;;;;;;;;;;;;;;;;;5057472;28;19929;-57
2022/12/06 00:29:23;;;;;;;;;;;;;;;;;;5064902;28;19928;-59
2022/12/06 00:31:49;;;;;;;;;;;;;;;;;;5061916;28;19928;-56
2022/12/06 00:34:14;;;;;;;;;;;;;;;;;;5063645;28;19990;-58
2022/12/06 00:36:40;;;;;;;;;;;;;;;;;;5066563;28;19959;-57
2022/12/06 00:39:10;;;;;;;;;;;;;;;;;;5063572;28;19936;-52
2022/12/06 00:41:36;;;;;;;;;;;;;;;;;;5059689;28;19954;-58
2022/12/06 00:44:01;;;;;;;;;;;;;;;;;;5057780;28;19925;-60
2022/12/06 00:46:28;;;;;;;;;;;;;;;;;;5057250;28;19936;-58
2022/12/06 00:48:54;;;;;;;;;;;;;;;;;;5060908;28;20646;-56
2022/12/06 00:51:20;;;;;;;;;;;;;;;;;;5066109;28;19943;-57
2022/12/06 00:53:46;;;;;;;;;;;;;;;;;;5062492;28;20389;-56
2022/12/06 00:56:11;;;;;;;;;;;;;;;;;;5061159;28;19924;-57
2022/12/06 00:58:36;;;;;;;;;;;;;;;;;;5062152;28;19928;-56
2022/12/06 01:01:11;;;;;;;;;;;;;;;;;;5061380;28;20002;-54
2022/12/06 01:03:37;;;;;;;;;;;;;;;;;;5057104;28;19990;-56
2022/12/06 01:06:03;;;;;;;;;;;;;;;;;;5058908;28;20459;-69
2022/12/06 01:08:29;;;;;;;;;;;;;;;;;;5059157;28;20023;-69
2022/12/06 01:10:54;;;;;;;;;;;;;;;;;;5063701;28;20728;-70
2022/12/06 01:13:20;;;;;;;;;;;;;;;;;;5064433;28;19928;-69
2022/12/06 01:15:45;;;;;;;;;;;;;;;;;;5063491;28;19921;-69
2022/12/06 01:18:10;;;;;;;;;;;;;;;;;;5063498;28;19924;-70
2022/12/06 01:20:35;;;;;;;;;;;;;;;;;;5063973;28;19960;-70
2022/12/06 01:23:01;;;;;;;;;;;;;;;;;;5057410;28;19935;-69
2022/12/06 01:25:26;;;;;;;;;;;;;;;;;;5057935;28;19932;-71
2022/12/06 01:27:51;;;;;;;;;;;;;;;;;;5063368;28;20545;-70
2022/12/06 01:30:17;;;;;;;;;;;;;;;;;;5062810;28;20372;-71
2022/12/06 01:32:42;;;;;;;;;;;;;;;;;;5059246;28;19978;-70
2022/12/06 01:35:07;;;;;;;;;;;;;;;;;;5061486;28;19924;-71
2022/12/06 01:37:33;;;;;;;;;;;;;;;;;;5061983;28;19935;-70
2022/12/06 01:39:58;;;;;;;;;;;;;;;;;;5060703;28;19928;-70
2022/12/06 01:42:23;;;;;;;;;;;;;;;;;;5058558;28;20273;-70
2022/12/06 01:44:50;;;;;;;;;;;;;;;;;;5060753;28;19935;-72
2022/12/06 01:47:18;;;;;;;;;;;;;;;;;;5062112;28;19964;-70
2022/12/06 01:49:46;;;;;;;;;;;;;;;;;;5061868;28;19935;-70
2022/12/06 01:52:12;;;;;;;;;;;;;;;;;;5061511;28;19928;-70
2022/12/06 01:54:39;;;;;;;;;;;;;;;;;;5065938;28;19927;-70
2022/12/06 01:57:05;;;;;;;;;;;;;;;;;;5063690;28;19936;-70
2022/12/06 01:59:31;;;;;;;;;;;;;;;;;;5060958;28;20288;-69
2022/12/06 02:01:57;;;;;;;;;;;;;;;;;;5059465;28;19935;-70
2022/12/06 02:04:23;;;;;;;;;;;;;;;;;;5059679;28;19931;-71
2022/12/06 02:06:49;;;;;;;;;;;;;;;;;;5060563;28;19943;-71
2022/12/06 02:09:15;;;;;;;;;;;;;;;;;;5060633;28;19924;-71
2022/12/06 02:11:42;;;;;;;;;;;;;;;;;;5061062;28;19967;-70
2022/12/06 02:14:10;;;;;;;;;;;;;;;;;;5064592;28;19925;-70
2022/12/06 02:16:54;;;;;;;;;;;;;;;;;;5058755;28;19951;-69
2022/12/06 02:19:34;;;;;;;;;;;;;;;;;;5062080;28;19979;-70
2022/12/06 02:22:05;;;;;;;;;;;;;;;;;;5061450;28;21843;-70
2022/12/06 02:24:53;;;;;;;;;;;;;;;;;;5061174;28;20019;-69
2022/12/06 02:27:36;;;;;;;;;;;;;;;;;;5055779;28;19951;-71
2022/12/06 02:30:09;;;;;;;;;;;;;;;;;;5061990;28;19932;-70
2022/12/06 02:32:43;;;;;;;;;;;;;;;;;;5078643;28;20019;-71
2022/12/06 02:35:08;;;;;;;;;;;;;;;;;;5059804;28;19959;-71
2022/12/06 02:37:42;;;;;;;;;;;;;;;;;;5059329;28;20395;-71
2022/12/06 02:40:10;;;;;;;;;;;;;;;;;;5058893;28;19950;-71
2022/12/06 02:42:39;;;;;;;;;;;;;;;;;;5065683;28;19964;-71
2022/12/06 02:45:09;;;;;;;;;;;;;;;;;;5057767;28;19970;-70
2022/12/06 02:47:36;;;;;;;;;;;;;;;;;;5063749;28;19985;-70
2022/12/06 02:50:07;;;;;;;;;;;;;;;;;;5065912;28;20019;-71
2022/12/06 02:52:34;;;;;;;;;;;;;;;;;;5057698;28;19939;-70
2022/12/06 02:55:00;;;;;;;;;;;;;;;;;;5062076;28;20014;-69
2022/12/06 02:57:39;;;;;;;;;;;;;;;;;;5061232;28;19932;-69
2022/12/06 03:00:23;;;;;;;;;;;;;;;;;;5056703;28;19938;-70
2022/12/06 03:02:49;;;;;;;;;;;;;;;;;;5068750;28;19933;-69
2022/12/06 03:05:23;;;;;;;;;;;;;;;;;;5063951;28;19935;-70
2022/12/06 03:07:49;;;;;;;;;;;;;;;;;;5059116;28;19924;-70
2022/12/06 03:10:14;;;;;;;;;;;;;;;;;;5062055;28;19928;-70
2022/12/06 03:12:46;;;;;;;;;;;;;;;;;;5060854;28;20334;-71
2022/12/06 03:15:18;;;;;;;;;;;;;;;;;;5058714;28;19937;-70
2022/12/06 03:17:50;;;;;;;;;;;;;;;;;;5065003;28;19974;-69
2022/12/06 03:20:19;;;;;;;;;;;;;;;;;;5055748;28;19935;-70
2022/12/06 03:22:47;;;;;;;;;;;;;;;;;;5057563;28;19931;-70
2022/12/06 03:25:13;;;;;;;;;;;;;;;;;;5059890;28;19932;-70
2022/12/06 03:27:38;;;;;;;;;;;;;;;;;;5063069;28;19928;-70
2022/12/06 03:30:07;;;;;;;;;;;;;;;;;;5059097;28;20277;-70
2022/12/06 03:32:33;;;;;;;;;;;;;;;;;;5058970;28;19929;-71
2022/12/06 03:35:01;;;;;;;;;;;;;;;;;;5059758;28;19936;-71
2022/12/06 03:37:29;;;;;;;;;;;;;;;;;;5056884;28;19935;-71
2022/12/06 03:40:10;;;;;;;;;;;;;;;;;;5059528;28;19978;-71
2022/12/06 03:42:36;;;;;;;;;;;;;;;;;;5058400;28;19959;-70
2022/12/06 03:45:02;;;;;;;;;;;;;;;;;;5057866;28;19983;-69
2022/12/06 03:47:40;;;;;;;;;;;;;;;;;;5059371;28;20307;-71
2022/12/06 03:50:29;;;;;;;;;;;;;;;;;;5056819;28;19928;-71
2022/12/06 03:52:55;;;;;;;;;;;;;;;;;;5048784;28;19973;-70
2022/12/06 03:55:20;;;;;;;;;;;;;;;;;;5061828;28;19924;-71
2022/12/06 03:57:45;;;;;;;;;;;;;;;;;;5058740;28;19920;-69
2022/12/06 04:00:11;;;;;;;;;;;;;;;;;;5058800;28;19935;-71
2022/12/06 04:02:36;;;;;;;;;;;;;;;;;;5062551;28;20015;-71
2022/12/06 04:05:02;;;;;;;;;;;;;;;;;;5064332;28;19924;-71
2022/12/06 04:07:27;;;;;;;;;;;;;;;;;;5062595;28;19924;-74
2022/12/06 04:10:01;;;;;;;;;;;;;;;;;;5060103;28;19948;-74
2022/12/06 04:15:10;;;;;;;;;;;;;;;;;;5064806;28;19966;-74
2022/12/06 04:20:20;;;;;;;;;;;;;;;;;;5065248;28;19992;-74
2022/12/06 04:23:04;;;;;;;;;;;;;;;;;;5065680;28;21213;-74
2022/12/06 04:25:33;;;;;;;;;;;;;;;;;;5063675;28;19933;-74
2022/12/06 04:38:55;;;;;;;;;;;;;;;;;;5065249;28;19987;-73
2022/12/06 04:44:04;;;;;;;;;;;;;;;;;;5062472;28;19947;-73
2022/12/06 04:46:29;;;;;;;;;;;;;;;;;;5064990;28;19933;-73
2022/12/06 04:48:55;;;;;;;;;;;;;;;;;;5064322;28;19948;-73
2022/12/06 04:51:20;;;;;;;;;;;;;;;;;;5063989;28;19920;-74
2022/12/06 04:53:45;;;;;;;;;;;;;;;;;;5063643;28;20015;-74
2022/12/06 04:56:11;;;;;;;;;;;;;;;;;;5064706;28;20512;-74
2022/12/06 04:58:36;;;;;;;;;;;;;;;;;;5064939;28;20295;-74
2022/12/06 05:01:02;;;;;;;;;;;;;;;;;;5065454;28;19925;-74
2022/12/06 05:03:27;;;;;;;;;;;;;;;;;;5060414;28;19924;-74
2022/12/06 05:05:52;;;;;;;;;;;;;;;;;;5066073;28;19956;-70
2022/12/06 05:08:18;;;;;;;;;;;;;;;;;;5066563;28;19936;-70
2022/12/06 05:10:47;;;;;;;;;;;;;;;;;;5068992;28;21968;-70
2022/12/06 05:13:13;;;;;;;;;;;;;;;;;;5071671;28;19973;-70
2022/12/06 05:15:38;;;;;;;;;;;;;;;;;;5061092;28;19928;-70
2022/12/06 05:18:03;;;;;;;;;;;;;;;;;;5065306;28;19938;-70
2022/12/06 05:20:29;;;;;;;;;;;;;;;;;;5061844;28;19956;-70
2022/12/06 05:22:54;;;;;;;;;;;;;;;;;;5057742;28;19955;-70
2022/12/06 05:25:19;;;;;;;;;;;;;;;;;;5061156;28;19968;-70
2022/12/06 05:27:45;;;;;;;;;;;;;;;;;;5062345;28;20291;-70
2022/12/06 05:30:10;;;;;;;;;;;;;;;;;;5073878;28;19924;-70
2022/12/06 05:32:37;;;;;;;;;;;;;;;;;;5065433;28;19924;-70
2022/12/06 05:35:02;;;;;;;;;;;;;;;;;;5064434;28;20036;-70
2022/12/06 05:37:27;;;;;;;;;;;;;;;;;;5061321;28;20018;-72
2022/12/06 05:39:53;;;;;;;;;;;;;;;;;;5060815;28;20018;-70
2022/12/06 05:42:18;;;;;;;;;;;;;;;;;;5062032;28;19940;-69
2022/12/06 05:44:43;;;;;;;;;;;;;;;;;;5062787;28;19931;-70
2022/12/06 05:47:09;;;;;;;;;;;;;;;;;;5059353;28;19928;-69
2022/12/06 05:49:34;;;;;;;;;;;;;;;;;;5061768;28;19950;-70
2022/12/06 05:51:59;;;;;;;;;;;;;;;;;;5064153;28;19978;-70
2022/12/06 05:54:24;;;;;;;;;;;;;;;;;;5065572;28;19932;-70
2022/12/06 05:56:50;;;;;;;;;;;;;;;;;;5061166;28;19928;-71
2022/12/06 05:59:15;;;;;;;;;;;;;;;;;;5058409;28;20011;-70
2022/12/06 06:01:41;;;;;;;;;;;;;;;;;;5059477;28;19970;-72
2022/12/06 06:04:06;;;;;;;;;;;;;;;;;;5054223;28;20024;-70
2022/12/06 06:06:31;;;;;;;;;;;;;;;;;;5062562;28;19924;-62
2022/12/06 06:08:56;;;;;;;;;;;;;;;;;;5062207;28;20345;-62
2022/12/06 06:11:22;;;;;;;;;;;;;;;;;;5062902;28;19951;-62
2022/12/06 06:13:47;;;;;;;;;;;;;;;;;;5062122;28;19982;-62
2022/12/06 06:16:12;;;;;;;;;;;;;;;;;;5062162;28;19933;-69
2022/12/06 06:18:38;;;;;;;;;;;;;;;;;;5058952;28;20159;-69
2022/12/06 06:21:03;;;;;;;;;;;;;;;;;;5061481;28;19928;-70
2022/12/06 06:23:28;;;;;;;;;;;;;;;;;;5060664;28;20433;-72
2022/12/06 06:25:54;;;;;;;;;;;;;;;;;;5063619;28;19924;-70
2022/12/06 06:28:19;;;;;;;;;;;;;;;;;;5063813;28;19970;-69
2022/12/06 06:30:45;;;;;;;;;;;;;;;;;;5063428;28;20287;-68
2022/12/06 06:33:10;;;;;;;;;;;;;;;;;;5062581;28;19928;-69
2022/12/06 06:35:36;;;;;;;;;;;;;;;;;;5068671;28;19932;-69
2022/12/06 06:38:02;;;;;;;;;;;;;;;;;;5054561;28;19931;-67
2022/12/06 06:40:27;;;;;;;;;;;;;;;;;;5059338;28;19924;-69
2022/12/06 06:42:53;;;;;;;;;;;;;;;;;;5060036;28;20430;-69
2022/12/06 06:45:18;;;;;;;;;;;;;;;;;;5065660;28;20473;-69
2022/12/06 06:47:43;;;;;;;;;;;;;;;;;;5062374;28;19929;-69
2022/12/06 06:50:08;;;;;;;;;;;;;;;;;;5060375;28;19932;-69
2022/12/06 06:52:34;;;;;;;;;;;;;;;;;;5062220;28;20003;-69
2022/12/06 06:54:59;;;;;;;;;;;;;;;;;;5063279;28;19928;-69
2022/12/06 06:57:24;;;;;;;;;;;;;;;;;;5059897;28;19974;-70
2022/12/06 06:59:49;;;;;;;;;;;;;;;;;;5056727;28;19928;-69
2022/12/06 07:02:16;;;;;;;;;;;;;;;;;;5060940;28;19924;-69
2022/12/06 07:04:41;;;;;;;;;;;;;;;;;;5062580;28;19939;-69
2022/12/06 07:07:07;;;;;;;;;;;;;;;;;;5062300;28;20298;-65
2022/12/06 07:09:32;;;;;;;;;;;;;;;;;;5064863;28;19989;-66
2022/12/06 07:11:57;;;;;;;;;;;;;;;;;;5061078;28;19932;-61
2022/12/06 07:14:23;;;;;;;;;;;;;;;;;;5059109;28;19943;-61
2022/12/06 07:16:48;;;;;;;;;;;;;;;;;;5060532;28;19943;-60
2022/12/06 07:19:13;;;;;;;;;;;;;;;;;;5059609;28;19928;-62
2022/12/06 07:21:39;;;;;;;;;;;;;;;;;;5060558;28;20376;-62
2022/12/06 07:24:04;;;;;;;;;;;;;;;;;;5064120;28;20370;-63
2022/12/06 07:26:30;;;;;;;;;;;;;;;;;;5062820;28;20015;-62
2022/12/06 07:28:58;;;;;;;;;;;;;;;;;;5061956;28;19978;-62
2022/12/06 07:31:24;;;;;;;;;;;;;;;;;;5056852;28;20405;-62
2022/12/06 07:33:53;;;;;;;;;;;;;;;;;;5059724;28;19924;-62
2022/12/06 07:36:19;;;;;;;;;;;;;;;;;;5056317;28;19981;-62
2022/12/06 07:38:52;;;;;;;;;;;;;;;;;;5057347;28;19933;-62
2022/12/06 07:46:46;;;;;;;;;;;;;;;;;;5059186;28;19936;-62
2022/12/06 07:49:14;;;;;;;;;;;;;;;;;;5064458;28;20302;-62
2022/12/06 07:51:39;;;;;;;;;;;;;;;;;;5061750;28;20377;-62
2022/12/06 07:54:05;;;;;;;;;;;;;;;;;;5066866;28;19924;-61
2022/12/06 07:56:30;;;;;;;;;;;;;;;;;;5061403;28;20410;-61
2022/12/06 07:58:55;;;;;;;;;;;;;;;;;;5061468;28;20007;-61
2022/12/06 08:01:22;;;;;;;;;;;;;;;;;;5059738;28;20024;-62
2022/12/06 08:03:47;;;;;;;;;;;;;;;;;;5063346;28;19921;-62
2022/12/06 08:06:12;;;;;;;;;;;;;;;;;;5067524;28;19928;-66
2022/12/06 08:08:38;;;;;;;;;;;;;;;;;;5066357;28;20385;-66
2022/12/06 08:11:04;;;;;;;;;;;;;;;;;;5063213;28;19924;-66
2022/12/06 08:13:30;;;;;;;;;;;;;;;;;;5061782;28;20311;-66
2022/12/06 08:15:55;;;;;;;;;;;;;;;;;;5066415;28;19924;-66
2022/12/06 08:18:21;;;;;;;;;;;;;;;;;;5057584;28;20015;-66
2022/12/06 08:20:46;;;;;;;;;;;;;;;;;;5063104;28;20391;-67
2022/12/06 08:23:11;;;;;;;;;;;;;;;;;;5063464;28;19928;-71
2022/12/06 08:25:37;;;;;;;;;;;;;;;;;;5066320;28;19929;-66
2022/12/06 08:28:02;;;;;;;;;;;;;;;;;;5065083;28;20248;-67
2022/12/06 08:30:28;;;;;;;;;;;;;;;;;;5063326;28;19928;-66
2022/12/06 08:32:53;;;;;;;;;;;;;;;;;;5072106;28;19932;-66
2022/12/06 08:35:18;;;;;;;;;;;;;;;;;;5062884;28;19937;-65
2022/12/06 08:37:44;;;;;;;;;;;;;;;;;;5068849;28;20011;-66
2022/12/06 08:40:09;;;;;;;;;;;;;;;;;;5060403;28;20445;-65
2022/12/06 08:42:35;;;;;;;;;;;;;;;;;;5073549;28;20375;-65
2022/12/06 08:45:00;;;;;;;;;;;;;;;;;;5076443;28;19932;-65
2022/12/06 08:47:25;;;;;;;;;;;;;;;;;;5070841;28;19951;-65
2022/12/06 08:49:50;;;;;;;;;;;;;;;;;;5065083;28;20021;-65
2022/12/06 08:52:16;;;;;;;;;;;;;;;;;;5068684;28;20387;-66
2022/12/06 08:54:41;;;;;;;;;;;;;;;;;;5063483;28;19997;-65
2022/12/06 08:57:07;;;;;;;;;;;;;;;;;;5069321;28;20402;-65
2022/12/06 08:59:32;;;;;;;;;;;;;;;;;;5059636;28;21276;-65
2022/12/06 09:01:58;;;;;;;;;;;;;;;;;;5066125;28;20338;-67
2022/12/06 09:04:23;;;;;;;;;;;;;;;;;;5066129;28;19939;-66
2022/12/06 09:06:48;;;;;;;;;;;;;;;;;;5064025;28;19955;-64
2022/12/06 09:09:15;;;;;;;;;;;;;;;;;;5071204;28;19938;-65
2022/12/06 09:11:40;;;;;;;;;;;;;;;;;;5066015;28;19947;-65
2022/12/06 09:14:08;;;;;;;;;;;;;;;;;;5068180;28;20482;-65
2022/12/06 09:16:33;;;;;;;;;;;;;;;;;;5063470;28;19928;-64
2022/12/06 09:18:58;;;;;;;;;;;;;;;;;;5062597;28;19936;-66
2022/12/06 09:21:25;;;;;;;;;;;;;;;;;;5069325;28;20398;-65
2022/12/06 09:23:53;;;;;;;;;;;;;;;;;;5071792;28;19925;-65
2022/12/06 09:26:18;;;;;;;;;;;;;;;;;;5067649;28;19933;-65
2022/12/06 09:28:45;;;;;;;;;;;;;;;;;;5070203;28;20323;-65
2022/12/06 09:31:10;;;;;;;;;;;;;;;;;;5069593;28;19939;-65
2022/12/06 09:33:36;;;;;;;;;;;;;;;;;;5065477;28;19920;-65
2022/12/06 09:36:09;;;;;;;;;;;;;;;;;;5067865;28;19940;-65
2022/12/06 09:38:35;;;;;;;;;;;;;;;;;;5062090;28;20593;-65
2022/12/06 09:41:00;;;;;;;;;;;;;;;;;;5064980;28;19959;-65
2022/12/06 09:43:38;;;;;;;;;;;;;;;;;;5071578;28;19933;-65
2022/12/06 09:46:09;;;;;;;;;;;;;;;;;;5064258;28;20387;-65
2022/12/06 09:48:37;;;;;;;;;;;;;;;;;;5076867;28;19939;-66
2022/12/06 09:51:21;;;;;;;;;;;;;;;;;;5071790;28;20425;-67
2022/12/06 09:53:53;;;;;;;;;;;;;;;;;;5069283;28;20014;-66
2022/12/06 09:56:24;;;;;;;;;;;;;;;;;;5064545;28;19929;-65
2022/12/06 09:59:07;;;;;;;;;;;;;;;;;;5069185;28;20342;-66
2022/12/06 10:01:53;;;;;;;;;;;;;;;;;;5073572;28;20006;-65
2022/12/06 10:04:38;;;;;;;;;;;;;;;;;;5038344;28;19932;-65
2022/12/06 10:07:14;;;;;;;;;;;;;;;;;;5063060;28;19927;-54
2022/12/06 10:09:55;;;;;;;;;;;;;;;;;;5063385;28;20280;-54
2022/12/06 10:12:28;;;;;;;;;;;;;;;;;;5065927;28;19964;-56
2022/12/06 10:14:56;;;;;;;;;;;;;;;;;;5067762;28;19935;-53
2022/12/06 10:17:24;;;;;;;;;;;;;;;;;;5065702;28;19943;-54
2022/12/06 10:19:52;;;;;;;;;;;;;;;;;;5065834;28;19932;-51
2022/12/06 10:22:21;;;;;;;;;;;;;;;;;;5067817;28;19939;-51
2022/12/06 10:24:52;;;;;;;;;;;;;;;;;;5068000;28;19920;-55
2022/12/06 10:27:26;;;;;;;;;;;;;;;;;;5070452;28;20007;-56
2022/12/06 10:29:54;;;;;;;;;;;;;;;;;;5065106;28;19975;-54
2022/12/06 10:32:46;;;;;;;;;;;;;;;;;;5063522;28;19933;-55
2022/12/06 10:35:27;;;;;;;;;;;;;;;;;;5063654;28;20321;-54
2022/12/06 10:38:08;;;;;;;;;;;;;;;;;;5057589;28;19981;-53
2022/12/06 10:40:52;;;;;;;;;;;;;;;;;;5065941;28;19924;-57
2022/12/06 10:43:24;;;;;;;;;;;;;;;;;;5065061;28;19925;-54
2022/12/06 10:48:59;;;;;;;;;;;;;;;;;;5060908;28;20549;-50
2022/12/06 10:51:30;;;;;;;;;;;;;;;;;;5062973;28;19925;-51
2022/12/06 10:53:57;;;;;;;;;;;;;;;;;;5061977;28;19928;-52
2022/12/06 10:56:25;;;;;;;;;;;;;;;;;;5062610;28;19931;-53
2022/12/06 10:58:56;;;;;;;;;;;;;;;;;;5059793;28;20261;-51
2022/12/06 11:01:24;;;;;;;;;;;;;;;;;;5064572;28;19963;-53
2022/12/06 11:03:52;;;;;;;;;;;;;;;;;;5065407;28;19929;-54
2022/12/06 11:06:24;;;;;;;;;;;;;;;;;;5065930;28;20368;-55
2022/12/06 11:08:51;;;;;;;;;;;;;;;;;;5070963;28;19931;-58
2022/12/06 11:11:23;;;;;;;;;;;;;;;;;;5060633;28;19935;-56
2022/12/06 11:13:55;;;;;;;;;;;;;;;;;;5062225;28;19925;-56
2022/12/06 11:16:22;;;;;;;;;;;;;;;;;;5065141;28;20389;-55
2022/12/06 11:18:48;;;;;;;;;;;;;;;;;;5064445;28;19965;-53
2022/12/06 11:21:26;;;;;;;;;;;;;;;;;;5067827;28;19920;-55
2022/12/06 11:23:57;;;;;;;;;;;;;;;;;;5064780;28;19933;-55
2022/12/06 11:26:26;;;;;;;;;;;;;;;;;;5059383;28;19932;-55
2022/12/06 11:29:03;;;;;;;;;;;;;;;;;;5064660;28;20371;-56
2022/12/06 11:31:45;;;;;;;;;;;;;;;;;;5060641;28;20652;-58
2022/12/06 11:34:17;;;;;;;;;;;;;;;;;;5059236;28;20047;-52
2022/12/06 11:36:43;;;;;;;;;;;;;;;;;;5062686;28;19983;-55
2022/12/06 11:39:10;;;;;;;;;;;;;;;;;;5066466;28;19934;-57
2022/12/06 11:41:36;;;;;;;;;;;;;;;;;;5062407;28;19963;-55
2022/12/06 11:44:01;;;;;;;;;;;;;;;;;;5063838;28;19998;-55
2022/12/06 11:46:27;;;;;;;;;;;;;;;;;;5066458;28;20019;-53
2022/12/06 11:48:53;;;;;;;;;;;;;;;;;;5067324;28;20010;-56
2022/12/06 11:51:20;;;;;;;;;;;;;;;;;;5071639;28;19936;-55
2022/12/06 11:54:04;;;;;;;;;;;;;;;;;;5065644;28;19925;-56
2022/12/06 11:56:39;;;;;;;;;;;;;;;;;;5063530;28;19939;-56
2022/12/06 11:59:13;;;;;;;;;;;;;;;;;;5065024;28;19924;-54
2022/12/06 12:01:38;;;;;;;;;;;;;;;;;;5058858;28;19929;-54
2022/12/06 12:04:22;;;;;;;;;;;;;;;;;;5065406;28;19970;-55
2022/12/06 12:06:50;;;;;;;;;;;;;;;;;;5066852;28;19964;-52
2022/12/06 12:09:19;;;;;;;;;;;;;;;;;;5068211;28;19972;-53
2022/12/06 12:11:52;;;;;;;;;;;;;;;;;;5066501;28;20343;-54
2022/12/06 12:14:22;;;;;;;;;;;;;;;;;;5064935;28;20340;-54
2022/12/06 12:16:48;;;;;;;;;;;;;;;;;;5066366;28;20016;-54
2022/12/06 12:19:25;;;;;;;;;;;;;;;;;;5067872;28;20027;-57
2022/12/06 12:21:52;;;;;;;;;;;;;;;;;;5070376;28;20162;-55
2022/12/06 12:24:36;;;;;;;;;;;;;;;;;;5068588;28;19932;-54
2022/12/06 12:27:03;;;;;;;;;;;;;;;;;;5069684;28;19924;-54
2022/12/06 12:29:28;;;;;;;;;;;;;;;;;;5063832;28;20027;-53
2022/12/06 12:31:55;;;;;;;;;;;;;;;;;;5065719;28;19929;-53
2022/12/06 12:34:23;;;;;;;;;;;;;;;;;;5069367;28;19932;-54
2022/12/06 12:36:56;;;;;;;;;;;;;;;;;;5069511;28;20158;-54
2022/12/06 12:39:23;;;;;;;;;;;;;;;;;;5073041;28;19924;-54
2022/12/06 12:41:49;;;;;;;;;;;;;;;;;;5072838;28;20137;-56
2022/12/06 12:44:15;;;;;;;;;;;;;;;;;;5068275;28;20311;-55
2022/12/06 12:46:42;;;;;;;;;;;;;;;;;;5067925;28;20035;-54
2022/12/06 12:49:25;;;;;;;;;;;;;;;;;;5067000;28;20426;-52
2022/12/06 12:51:51;;;;;;;;;;;;;;;;;;5062641;28;19932;-54
2022/12/06 12:54:22;;;;;;;;;;;;;;;;;;5067299;28;19925;-56
2022/12/06 12:56:48;;;;;;;;;;;;;;;;;;5060964;28;20319;-54
2022/12/06 12:59:22;;;;;;;;;;;;;;;;;;5073107;28;19925;-55
2022/12/06 13:01:56;;;;;;;;;;;;;;;;;;5072107;28;19925;-55
2022/12/06 13:04:50;;;;;;;;;;;;;;;;;;5072238;28;19948;-53
2022/12/06 13:07:33;;;;;;;;;;;;;;;;;;5049455;28;19931;-53
2022/12/06 13:10:05;;;;;;;;;;;;;;;;;;5070476;28;20024;-54
2022/12/06 13:12:35;;;;;;;;;;;;;;;;;;5068904;28;19928;-66
2022/12/06 13:15:20;;;;;;;;;;;;;;;;;;5061101;28;20015;-66
2022/12/06 13:17:52;;;;;;;;;;;;;;;;;;5056108;28;20633;-66
2022/12/06 13:20:25;;;;;;;;;;;;;;;;;;5068434;28;19928;-67
2022/12/06 13:22:52;;;;;;;;;;;;;;;;;;5067208;28;19971;-66
2022/12/06 13:25:17;;;;;;;;;;;;;;;;;;5058564;28;20314;-66
2022/12/06 13:27:44;;;;;;;;;;;;;;;;;;5064308;28;19924;-67
2022/12/06 13:30:17;;;;;;;;;;;;;;;;;;5067615;28;20395;-67
2022/12/06 13:32:45;;;;;;;;;;;;;;;;;;5067528;28;19967;-67
2022/12/06 13:35:22;;;;;;;;;;;;;;;;;;5067636;28;19935;-68
2022/12/06 13:37:59;;;;;;;;;;;;;;;;;;5060413;28;20927;-70
2022/12/06 13:40:31;;;;;;;;;;;;;;;;;;5060005;28;19936;-67
2022/12/06 13:42:56;;;;;;;;;;;;;;;;;;5067255;28;20785;-67
2022/12/06 13:45:44;;;;;;;;;;;;;;;;;;5071432;28;19980;-67
2022/12/06 13:48:24;;;;;;;;;;;;;;;;;;5064431;28;19940;-67
2022/12/06 13:51:00;;;;;;;;;;;;;;;;;;5067660;28;19932;-67
2022/12/06 13:53:32;;;;;;;;;;;;;;;;;;5064612;28;19928;-67
2022/12/06 13:55:59;;;;;;;;;;;;;;;;;;5067947;28;19933;-67
2022/12/06 13:58:24;;;;;;;;;;;;;;;;;;5068130;28;19924;-67
2022/12/06 14:00:50;;;;;;;;;;;;;;;;;;5068974;28;19927;-67
2022/12/06 14:03:15;;;;;;;;;;;;;;;;;;5064974;28;20299;-67
2022/12/06 14:05:54;;;;;;;;;;;;;;;;;;5061337;28;19965;-67
2022/12/06 14:08:20;;;;;;;;;;;;;;;;;;5061392;28;19971;-67
2022/12/06 14:10:45;;;;;;;;;;;;;;;;;;5072437;28;19924;-68
2022/12/06 14:13:15;;;;;;;;;;;;;;;;;;5062485;28;19932;-69
2022/12/06 14:15:44;;;;;;;;;;;;;;;;;;5070871;28;19932;-71
2022/12/06 14:18:16;;;;;;;;;;;;;;;;;;5063606;28;19947;-69
2022/12/06 14:20:42;;;;;;;;;;;;;;;;;;5056325;28;19975;-69
2022/12/06 14:23:42;;;;;;;;;;;;;;;;;;5058395;28;20007;-67
2022/12/06 14:26:12;;;;;;;;;;;;;;;;;;4978066;28;19941;-67
2022/12/06 14:28:37;;;;;;;;;;;;;;;;;;5041485;28;20312;-67
2022/12/06 14:31:06;;;;;;;;;;;;;;;;;;5062212;28;19926;-66
2022/12/06 14:33:31;;;;;;;;;;;;;;;;;;5063165;28;20413;-66
2022/12/06 14:35:57;;;;;;;;;;;;;;;;;;5057720;28;19932;-66
2022/12/06 14:38:22;;;;;;;;;;;;;;;;;;5055603;28;19932;-66
2022/12/06 14:43:32;;;;;;;;;;;;;;;;;;5059479;28;19981;-65
2022/12/06 14:45:59;;;;;;;;;;;;;;;;;;5066965;28;19928;-65
2022/12/06 14:48:24;;;;;;;;;;;;;;;;;;5062392;28;20416;-66
2022/12/06 14:51:00;;;;;;;;;;;;;;;;;;5064053;28;19929;-60
2022/12/06 14:53:32;;;;;;;;;;;;;;;;;;5053647;28;19928;-61
2022/12/06 14:56:00;;;;;;;;;;;;;;;;;;5056374;28;19936;-60
2022/12/06 14:58:27;;;;;;;;;;;;;;;;;;5055332;28;19924;-61
2022/12/06 15:00:52;;;;;;;;;;;;;;;;;;5070150;28;19932;-61
2022/12/06 15:03:21;;;;;;;;;;;;;;;;;;5057052;28;19974;-60
2022/12/06 15:05:51;;;;;;;;;;;;;;;;;;5058967;28;19974;-68
2022/12/06 15:08:17;;;;;;;;;;;;;;;;;;5058568;28;19929;-68
2022/12/06 15:10:52;;;;;;;;;;;;;;;;;;5064912;28;19944;-68
2022/12/06 15:13:17;;;;;;;;;;;;;;;;;;5062328;28;19939;-68
2022/12/06 15:15:44;;;;;;;;;;;;;;;;;;5064312;28;20369;-68
2022/12/06 15:18:15;;;;;;;;;;;;;;;;;;5064244;28;19939;-68
2022/12/06 15:20:41;;;;;;;;;;;;;;;;;;5065409;28;19939;-64
2022/12/06 15:23:26;;;;;;;;;;;;;;;;;;5056423;28;19932;-64
2022/12/06 15:25:52;;;;;;;;;;;;;;;;;;5044577;28;20144;-64
2022/12/06 15:28:17;;;;;;;;;;;;;;;;;;5059417;28;19933;-64
2022/12/06 15:30:42;;;;;;;;;;;;;;;;;;5054787;28;19931;-66
2022/12/06 15:33:18;;;;;;;;;;;;;;;;;;5054340;28;19956;-65
2022/12/06 15:35:44;;;;;;;;;;;;;;;;;;5058036;28;19928;-67
2022/12/06 15:38:09;;;;;;;;;;;;;;;;;;5057425;28;19932;-68
2022/12/06 15:40:35;;;;;;;;;;;;;;;;;;5064784;28;20053;-61
2022/12/06 15:43:01;;;;;;;;;;;;;;;;;;5050597;28;19928;-61
2022/12/06 15:45:26;;;;;;;;;;;;;;;;;;5065784;28;20353;-61
2022/12/06 15:47:53;;;;;;;;;;;;;;;;;;5066313;28;19924;-61
2022/12/06 15:50:18;;;;;;;;;;;;;;;;;;5062275;28;19932;-60
2022/12/06 15:52:43;;;;;;;;;;;;;;;;;;5062371;28;19955;-60
2022/12/06 15:55:16;;;;;;;;;;;;;;;;;;5063756;28;20375;-61
2022/12/06 15:57:41;;;;;;;;;;;;;;;;;;5071455;28;19920;-61
2022/12/06 16:00:07;;;;;;;;;;;;;;;;;;5061238;28;19932;-61
2022/12/06 16:02:32;;;;;;;;;;;;;;;;;;5065592;28;19925;-63
2022/12/06 16:04:58;;;;;;;;;;;;;;;;;;5073686;28;19981;-61
2022/12/06 16:07:23;;;;;;;;;;;;;;;;;;5059717;28;20033;-62
2022/12/06 16:09:48;;;;;;;;;;;;;;;;;;5066366;28;19928;-61
2022/12/06 16:12:14;;;;;;;;;;;;;;;;;;5064621;28;19931;-61
2022/12/06 16:14:39;;;;;;;;;;;;;;;;;;5059519;28;19929;-61
2022/12/06 16:17:04;;;;;;;;;;;;;;;;;;5053609;28;19933;-69
2022/12/06 16:20:29;;;;;;;;;;;;;;;;;;5061702;28;20021;-68
2022/12/06 16:22:15;;;;;;;;;;;;;;;;;;5055728;28;19936;-62
2022/12/06 16:24:40;;;;;;;;;;;;;;;;;;5057350;28;19921;-62
2022/12/06 16:27:05;;;;;;;;;;;;;;;;;;5068211;28;21371;-60
2022/12/06 16:29:31;;;;;;;;;;;;;;;;;;5059021;28;19932;-60
2022/12/06 16:31:56;;;;;;;;;;;;;;;;;;5056909;28;19932;-61
2022/12/06 16:34:22;;;;;;;;;;;;;;;;;;5061065;28;20383;-59
2022/12/06 16:37:00;;;;;;;;;;;;;;;;;;5055590;28;19974;-62
2022/12/06 16:39:26;;;;;;;;;;;;;;;;;;5057851;28;19927;-62
2022/12/06 16:41:51;;;;;;;;;;;;;;;;;;5052504;28;19928;-59
2022/12/06 16:44:16;;;;;;;;;;;;;;;;;;5055451;28;20531;-59
2022/12/06 16:46:43;;;;;;;;;;;;;;;;;;5058099;28;19963;-58
2022/12/06 16:49:18;;;;;;;;;;;;;;;;;;5060512;28;20299;-57
2022/12/06 16:51:44;;;;;;;;;;;;;;;;;;5051586;28;20036;-57
2022/12/06 16:54:09;;;;;;;;;;;;;;;;;;5053183;28;20933;-60
2022/12/06 16:56:35;;;;;;;;;;;;;;;;;;5058010;28;19939;-59
2022/12/06 16:59:01;;;;;;;;;;;;;;;;;;5056884;28;19935;-59
2022/12/06 17:01:27;;;;;;;;;;;;;;;;;;5056549;28;19925;-69
2022/12/06 17:03:54;;;;;;;;;;;;;;;;;;5056344;28;19966;-68
2022/12/06 17:06:19;;;;;;;;;;;;;;;;;;5061383;28;19929;-69
2022/12/06 17:08:45;;;;;;;;;;;;;;;;;;5057374;28;19932;-69
2022/12/06 17:13:58;;;;;;;;;;;;;;;;;;5053611;28;19994;-60
2022/12/06 17:16:23;;;;;;;;;;;;;;;;;;5056708;28;20538;-60
2022/12/06 17:18:48;;;;;;;;;;;;;;;;;;5062315;28;19928;-61
2022/12/06 17:21:14;;;;;;;;;;;;;;;;;;5067116;28;20420;-60
2022/12/06 17:23:39;;;;;;;;;;;;;;;;;;5062643;28;19971;-60
2022/12/06 17:26:04;;;;;;;;;;;;;;;;;;5065804;28;19935;-60